Time;durP1;ratioP1;P1;durP2;ratioP2;P2;SDS_P1;SDS_P2;PMS_P1;PMS_P2;Temp;Humidity;BMP_temperature;BMP_pressure;BME280_temperature;BME280_humidity;BME280_pressure;Samples;Min_cycle;Max_cycle;Signal;HPM_P1;HPM_P2
2021/09/27 00:01:57;;;;;;;6.50;2.47;;;24.00;67.50;;;;;;5067430;28;20487;-39
2021/09/27 00:04:28;;;;;;;4.07;2.80;;;23.70;68.00;;;;;;5069085;28;20504;-38
2021/09/27 00:07:00;;;;;;;4.10;2.80;;;23.40;68.40;;;;;;5069351;28;20510;-38
2021/09/27 00:09:34;;;;;;;4.23;3.13;;;23.20;70.80;;;;;;5069174;28;20452;-38
2021/09/27 00:12:08;;;;;;;2.83;2.63;;;23.20;70.90;;;;;;5069218;28;20536;-38
2021/09/27 00:14:41;;;;;;;2.80;2.63;;;23.10;70.30;;;;;;5069355;28;20476;-38
2021/09/27 00:17:12;;;;;;;3.20;2.90;;;23.00;71.10;;;;;;5070356;28;20428;-39
2021/09/27 00:19:43;;;;;;;3.50;3.20;;;22.90;71.70;;;;;;5089139;28;20752;-41
2021/09/27 00:22:16;;;;;;;5.47;3.60;;;22.80;71.90;;;;;;5088936;28;20476;-40
2021/09/27 00:24:47;;;;;;;4.20;3.77;;;22.70;71.70;;;;;;5089272;28;20482;-39
2021/09/27 00:27:18;;;;;;;3.87;3.30;;;22.50;73.00;;;;;;5088934;28;20450;-40
2021/09/27 00:29:48;;;;;;;3.70;2.77;;;22.60;71.30;;;;;;5089071;28;20447;-38
2021/09/27 00:32:19;;;;;;;2.87;2.57;;;22.60;72.20;;;;;;5088411;28;20459;-42
2021/09/27 00:34:50;;;;;;;3.17;2.70;;;22.60;71.80;;;;;;5089317;28;20414;-38
2021/09/27 00:37:23;;;;;;;2.93;2.67;;;22.70;72.40;;;;;;5089053;28;20988;-38
2021/09/27 00:39:54;;;;;;;2.57;2.37;;;22.70;73.20;;;;;;5088972;28;20493;-40
2021/09/27 00:42:25;;;;;;;2.43;2.23;;;22.70;72.80;;;;;;5089032;28;20856;-37
2021/09/27 00:44:56;;;;;;;3.17;2.87;;;22.60;72.30;;;;;;5088689;28;20475;-37
2021/09/27 00:47:27;;;;;;;3.00;2.80;;;22.70;72.80;;;;;;5088363;28;20481;-38
2021/09/27 00:49:59;;;;;;;2.83;2.50;;;22.80;73.40;;;;;;5088950;28;20429;-41
2021/09/27 00:52:31;;;;;;;5.53;4.90;;;22.70;70.90;;;;;;5088726;28;20447;-39
2021/09/27 00:55:03;;;;;;;4.00;3.50;;;22.70;72.20;;;;;;5089127;28;20470;-38
2021/09/27 00:57:34;;;;;;;3.90;2.73;;;22.80;72.90;;;;;;5088669;28;20476;-40
2021/09/27 01:00:07;;;;;;;3.70;3.40;;;22.80;70.70;;;;;;5088408;28;20478;-40
2021/09/27 01:02:38;;;;;;;3.17;2.87;;;22.70;71.50;;;;;;5087811;28;20522;-39
2021/09/27 01:05:14;;;;;;;3.30;2.87;;;22.80;71.40;;;;;;5088919;28;20431;-39
2021/09/27 01:07:54;;;;;;;3.00;2.20;;;22.80;70.10;;;;;;5088990;28;20592;-39
2021/09/27 01:10:58;;;;;;;5.70;2.57;;;22.90;71.10;;;;;;5089092;28;20456;-39
2021/09/27 01:13:44;;;;;;;2.97;2.20;;;22.90;71.60;;;;;;5084901;28;20414;-40
2021/09/27 01:16:24;;;;;;;2.20;2.03;;;22.80;69.00;;;;;;5085437;28;20447;-39
2021/09/27 01:19:11;;;;;;;2.03;1.93;;;22.90;68.80;;;;;;5085396;28;20535;-38
2021/09/27 01:21:49;;;;;;;2.43;1.73;;;22.90;68.80;;;;;;5085549;28;20447;-39
2021/09/27 01:25:03;;;;;;;6.07;1.93;;;22.80;68.70;;;;;;5085793;28;20468;-38
2021/09/27 01:28:02;;;;;;;3.90;2.03;;;22.80;70.20;;;;;;5085708;28;20464;-38
2021/09/27 01:31:21;;;;;;;4.03;2.40;;;22.80;69.90;;;;;;5085310;28;20825;-38
2021/09/27 01:34:00;;;;;;;4.50;3.20;;;22.80;70.20;;;;;;4984174;28;20456;-38
2021/09/27 01:36:37;;;;;;;2.50;2.30;;;22.80;69.40;;;;;;4984113;28;20467;-39
2021/09/27 01:39:13;;;;;;;3.17;2.60;;;22.70;72.00;;;;;;4984378;28;20512;-39
2021/09/27 01:41:53;;;;;;;3.23;2.40;;;22.70;70.60;;;;;;4984194;28;20576;-38
2021/09/27 01:44:31;;;;;;;2.70;2.43;;;22.70;70.90;;;;;;4984073;28;20491;-38
2021/09/27 01:47:05;;;;;;;4.17;2.90;;;22.70;72.20;;;;;;4983137;28;20475;-37
2021/09/27 01:49:45;;;;;;;3.30;3.00;;;22.60;71.30;;;;;;4983363;28;20448;-38
2021/09/27 01:52:26;;;;;;;2.30;2.10;;;22.70;71.20;;;;;;4977956;28;20460;-38
2021/09/27 01:55:01;;;;;;;4.17;2.97;;;22.60;71.90;;;;;;4976029;28;20474;-39
2021/09/27 01:57:40;;;;;;;2.87;2.50;;;22.60;72.50;;;;;;4979977;28;20474;-38
2021/09/27 02:00:16;;;;;;;2.30;2.20;;;22.60;73.20;;;;;;4983254;28;20440;-38
2021/09/27 02:02:55;;;;;;;3.23;2.07;;;22.60;74.20;;;;;;4973630;28;20442;-37
2021/09/27 02:05:34;;;;;;;3.03;2.17;;;22.60;74.50;;;;;;4982898;28;20558;-37
2021/09/27 02:08:09;;;;;;;3.00;1.80;;;22.60;75.60;;;;;;5033430;28;20802;-37
2021/09/27 02:10:46;;;;;;;4.63;1.70;;;22.60;76.00;;;;;;5083477;28;20455;-38
2021/09/27 02:13:22;;;;;;;3.60;2.10;;;22.50;79.20;;;;;;5084086;28;20964;-39
2021/09/27 02:15:58;;;;;;;3.10;2.20;;;22.40;85.90;;;;;;5082312;28;20451;-40
2021/09/27 02:18:33;;;;;;;4.10;2.13;;;22.00;91.40;;;;;;5076215;28;20978;-38
2021/09/27 02:21:10;;;;;;;3.40;2.20;;;21.50;94.60;;;;;;5084164;28;20439;-37
2021/09/27 02:23:46;;;;;;;3.53;1.97;;;21.20;98.30;;;;;;5065876;28;20515;-38
2021/09/27 02:26:18;;;;;;;2.43;2.23;;;20.80;99.90;;;;;;5064221;28;20483;-39
2021/09/27 02:28:49;;;;;;;2.30;2.10;;;20.50;99.90;;;;;;5064298;28;20544;-39
2021/09/27 02:31:31;;;;;;;3.93;1.80;;;20.50;99.90;;;;;;5064468;28;20469;-39
2021/09/27 02:34:08;;;;;;;1.87;1.60;;;20.40;99.90;;;;;;5065896;28;20562;-38
2021/09/27 02:36:48;;;;;;;2.37;1.73;;;20.30;99.90;;;;;;5075905;28;20425;-38
2021/09/27 02:39:26;;;;;;;1.80;1.57;;;20.20;99.90;;;;;;5082674;28;20458;-37
2021/09/27 02:42:01;;;;;;;5.33;2.13;;;20.20;99.90;;;;;;5081530;28;20524;-37
2021/09/27 02:44:32;;;;;;;3.57;2.07;;;20.10;99.90;;;;;;5083544;28;20461;-39
2021/09/27 02:47:05;;;;;;;1.97;1.77;;;20.10;99.90;;;;;;5064734;28;20444;-37
2021/09/27 02:49:43;;;;;;;2.83;1.87;;;20.10;99.90;;;;;;5064170;28;20456;-38
2021/09/27 02:52:18;;;;;;;3.77;2.20;;;20.10;99.90;;;;;;5063340;28;20468;-38
2021/09/27 02:54:52;;;;;;;4.13;1.57;;;20.10;99.90;;;;;;5071972;28;20469;-39
2021/09/27 02:57:39;;;;;;;1.97;1.73;;;20.20;99.90;;;;;;5045990;28;20501;-39
2021/09/27 03:00:13;;;;;;;2.70;1.93;;;20.20;99.90;;;;;;5077984;28;20423;-38
2021/09/27 03:03:05;;;;;;;2.80;2.00;;;20.10;99.90;;;;;;5062915;28;20461;-38
2021/09/27 03:05:47;;;;;;;3.20;1.60;;;20.10;99.90;;;;;;5079518;28;20454;-38
2021/09/27 03:08:39;;;;;;;2.30;2.10;;;20.10;99.90;;;;;;5083262;28;20476;-38
2021/09/27 03:11:45;;;;;;;2.40;1.77;;;20.10;99.90;;;;;;5083211;28;20906;-37
2021/09/27 03:14:33;;;;;;;2.87;2.30;;;20.10;99.90;;;;;;5083150;28;20457;-38
2021/09/27 03:17:09;;;;;;;5.03;2.20;;;20.10;99.90;;;;;;5075877;28;20426;-40
2021/09/27 03:19:57;;;;;;;2.23;2.03;;;20.00;99.90;;;;;;5082023;28;20421;-39
2021/09/27 03:22:37;;;;;;;4.37;1.90;;;20.10;99.90;;;;;;5062994;28;20419;-39
2021/09/27 03:25:23;;;;;;;4.60;2.37;;;20.10;99.90;;;;;;5063233;28;20450;-40
2021/09/27 03:28:04;;;;;;;2.10;2.00;;;20.00;99.90;;;;;;5063953;28;20447;-39
2021/09/27 03:30:41;;;;;;;3.77;1.90;;;20.00;99.90;;;;;;5062440;28;20477;-39
2021/09/27 03:33:20;;;;;;;2.07;1.60;;;20.10;99.90;;;;;;5063246;28;20965;-39
2021/09/27 03:36:12;;;;;;;1.70;1.60;;;20.10;99.90;;;;;;5063463;28;20558;-38
2021/09/27 03:38:50;;;;;;;1.77;1.50;;;20.10;99.90;;;;;;5075000;28;20440;-38
2021/09/27 03:41:30;;;;;;;2.83;1.67;;;20.20;99.90;;;;;;5082617;28;20454;-38
2021/09/27 03:44:08;;;;;;;1.57;1.23;;;20.10;99.90;;;;;;5063594;28;20462;-39
2021/09/27 03:46:47;;;;;;;2.10;1.77;;;20.00;99.90;;;;;;5072067;28;20426;-37
2021/09/27 03:49:26;;;;;;;2.60;1.20;;;20.00;99.90;;;;;;5082890;28;20427;-38
2021/09/27 03:52:02;;;;;;;2.53;1.40;;;20.00;99.90;;;;;;5073018;28;20422;-38
2021/09/27 03:54:36;;;;;;;1.37;1.27;;;20.00;99.90;;;;;;5065827;28;20419;-40
2021/09/27 03:57:13;;;;;;;2.70;1.27;;;20.00;99.90;;;;;;5062384;28;20422;-38
2021/09/27 03:59:48;;;;;;;2.07;1.40;;;19.90;99.90;;;;;;5076417;28;20463;-38
2021/09/27 04:02:28;;;;;;;2.30;1.70;;;19.80;99.90;;;;;;5081379;28;20554;-37
2021/09/27 04:05:06;;;;;;;1.57;1.47;;;19.40;99.90;;;;;;5081247;28;20988;-38
2021/09/27 04:07:54;;;;;;;1.97;1.80;;;19.10;99.90;;;;;;5080626;28;20454;-38
2021/09/27 04:10:34;;;;;;;1.83;1.60;;;18.80;99.90;;;;;;5082007;28;20447;-38
2021/09/27 04:13:25;;;;;;;3.10;1.50;;;18.50;99.90;;;;;;5082085;28;20474;-38
2021/09/27 04:16:10;;;;;;;1.73;1.20;;;18.30;99.90;;;;;;5079794;28;20501;-37
2021/09/27 04:18:53;;;;;;;2.63;1.60;;;18.20;99.90;;;;;;5062073;28;20447;-37
2021/09/27 04:21:31;;;;;;;3.40;1.90;;;18.20;99.90;;;;;;5061749;28;20920;-38
2021/09/27 04:24:14;;;;;;;3.13;1.60;;;18.10;99.90;;;;;;5062275;28;20498;-37
2021/09/27 04:27:00;;;;;;;4.80;2.10;;;18.10;99.90;;;;;;5062065;28;20480;-37
2021/09/27 04:30:13;;;;;;;3.73;2.27;;;18.10;99.90;;;;;;5067165;28;20501;-37
2021/09/27 04:33:07;;;;;;;3.20;2.43;;;18.00;99.90;;;;;;5076769;28;20448;-37
2021/09/27 04:35:47;;;;;;;3.07;2.30;;;18.10;99.90;;;;;;5049070;28;20536;-37
2021/09/27 04:38:19;;;;;;;2.23;1.73;;;18.00;99.90;;;;;;5062627;28;20738;-37
2021/09/27 04:41:06;;;;;;;3.80;2.20;;;18.10;99.90;;;;;;5082696;28;20427;-37
2021/09/27 04:43:49;;;;;;;1.97;1.80;;;18.10;99.90;;;;;;5081450;28;20422;-38
2021/09/27 04:46:30;;;;;;;3.03;2.63;;;18.10;99.90;;;;;;5061239;28;20583;-38
2021/09/27 04:49:18;;;;;;;3.33;2.20;;;18.10;99.90;;;;;;5074768;28;20490;-37
2021/09/27 04:52:01;;;;;;;4.47;2.40;;;18.10;99.90;;;;;;5073515;28;20419;-37
2021/09/27 04:55:03;;;;;;;3.00;1.97;;;18.10;99.90;;;;;;5079260;28;20443;-37
2021/09/27 04:57:47;;;;;;;2.30;2.10;;;18.10;99.90;;;;;;5073980;28;20454;-37
2021/09/27 05:00:24;;;;;;;3.33;2.10;;;18.10;99.90;;;;;;5083095;28;20418;-38
2021/09/27 05:03:21;;;;;;;6.10;2.00;;;18.00;99.90;;;;;;5080777;28;20594;-37
2021/09/27 05:06:15;;;;;;;3.67;2.30;;;18.00;99.90;;;;;;5085002;28;20502;-38
2021/09/27 05:09:02;;;;;;;2.20;2.00;;;18.00;99.90;;;;;;5085697;28;20507;-37
2021/09/27 05:12:06;;;;;;;3.67;2.47;;;17.90;99.90;;;;;;5081891;28;20455;-37
2021/09/27 05:15:02;;;;;;;2.80;2.10;;;17.90;99.90;;;;;;5053879;28;20448;-38
2021/09/27 05:17:55;;;;;;;2.23;2.03;;;17.80;99.90;;;;;;5025834;28;20437;-38
2021/09/27 05:20:55;;;;;;;2.53;2.33;;;17.80;99.90;;;;;;5068506;28;20452;-38
2021/09/27 05:23:32;;;;;;;2.00;1.70;;;17.80;99.90;;;;;;5079363;28;20486;-39
2021/09/27 05:26:32;;;;;;;1.77;1.67;;;17.80;99.90;;;;;;5073255;28;20499;-37
2021/09/27 05:29:15;;;;;;;3.63;2.20;;;17.80;99.90;;;;;;5076686;28;20452;-37
2021/09/27 05:32:16;;;;;;;2.00;1.90;;;17.70;99.90;;;;;;5080348;28;20475;-37
2021/09/27 05:35:02;;;;;;;1.70;1.60;;;17.70;99.90;;;;;;5074994;28;20461;-38
2021/09/27 05:37:47;;;;;;;2.90;2.50;;;17.60;99.90;;;;;;5073485;28;20422;-37
2021/09/27 05:40:31;;;;;;;2.40;2.20;;;17.60;99.90;;;;;;5067556;28;20510;-37
2021/09/27 05:43:20;;;;;;;2.20;2.00;;;17.50;99.90;;;;;;5081151;28;20837;-38
2021/09/27 05:46:00;;;;;;;3.60;2.47;;;17.50;99.90;;;;;;5084549;28;20476;-38
2021/09/27 05:48:38;;;;;;;3.07;2.67;;;17.50;99.90;;;;;;5078744;28;20422;-38
2021/09/27 05:51:15;;;;;;;2.60;2.20;;;17.50;99.90;;;;;;5065085;28;20439;-38
2021/09/27 05:53:58;;;;;;;2.60;2.30;;;17.50;99.90;;;;;;5075398;28;20451;-38
2021/09/27 05:56:37;;;;;;;2.30;2.10;;;17.50;99.90;;;;;;5084660;28;20459;-38
2021/09/27 05:59:18;;;;;;;4.20;2.73;;;17.50;99.90;;;;;;5084390;28;20473;-39
2021/09/27 06:01:59;;;;;;;2.57;2.13;;;17.50;99.90;;;;;;5083525;28;20471;-38
2021/09/27 06:05:08;;;;;;;3.23;2.40;;;17.50;99.90;;;;;;5084129;28;20529;-38
2021/09/27 06:07:51;;;;;;;2.23;2.13;;;17.50;99.90;;;;;;5077411;28;20469;-38
2021/09/27 06:10:30;;;;;;;2.97;2.20;;;17.50;99.90;;;;;;5084589;28;20531;-36
2021/09/27 06:13:16;;;;;;;2.90;2.60;;;17.50;99.90;;;;;;5084088;28;20451;-36
2021/09/27 06:15:52;;;;;;;2.50;2.27;;;17.60;99.90;;;;;;5084057;28;20451;-36
2021/09/27 06:18:45;;;;;;;2.30;2.10;;;17.60;99.90;;;;;;5083837;28;20458;-37
2021/09/27 06:21:32;;;;;;;3.17;2.37;;;17.60;99.90;;;;;;5084456;28;20501;-38
2021/09/27 06:24:21;;;;;;;2.40;2.10;;;17.60;99.90;;;;;;5084076;28;20453;-37
2021/09/27 06:27:02;;;;;;;2.20;2.00;;;17.60;99.90;;;;;;5084077;28;20504;-37
2021/09/27 06:29:41;;;;;;;2.17;2.07;;;17.50;99.90;;;;;;5084261;28;20471;-37
2021/09/27 06:32:21;;;;;;;2.30;2.10;;;17.60;99.90;;;;;;5083311;28;20443;-37
2021/09/27 06:34:56;;;;;;;2.67;2.03;;;17.60;99.90;;;;;;5083525;28;20443;-36
2021/09/27 06:37:31;;;;;;;2.43;2.10;;;17.60;99.90;;;;;;5083947;28;20483;-37
2021/09/27 06:40:06;;;;;;;2.80;1.70;;;17.60;99.90;;;;;;5083995;28;20398;-38
2021/09/27 06:42:39;;;;;;;3.30;2.27;;;17.70;99.90;;;;;;5083978;28;20485;-37
2021/09/27 06:45:12;;;;;;;3.20;2.30;;;17.70;99.90;;;;;;5083518;28;20469;-37
2021/09/27 06:47:45;;;;;;;2.20;2.00;;;17.70;99.90;;;;;;5083276;28;20449;-37
2021/09/27 06:50:18;;;;;;;4.20;2.30;;;17.80;99.90;;;;;;5083513;28;20426;-37
2021/09/27 06:52:49;;;;;;;4.37;2.00;;;17.70;99.90;;;;;;5083677;28;20923;-37
2021/09/27 06:55:22;;;;;;;3.40;2.27;;;17.70;99.90;;;;;;5083433;28;20428;-38
2021/09/27 06:57:56;;;;;;;2.47;2.20;;;17.70;99.90;;;;;;5083906;28;20477;-37
2021/09/27 07:00:28;;;;;;;2.53;2.30;;;17.80;99.90;;;;;;5083000;28;20535;-38
2021/09/27 07:08:40;;;;;;;1.17;1.03;;;17.80;99.90;;;;;;5063508;28;20457;-38
2021/09/27 07:11:15;;;;;;;0.90;0.80;;;17.70;99.90;;;;;;5062501;28;20468;-37
2021/09/27 07:13:48;;;;;;;3.33;1.37;;;17.70;99.90;;;;;;5063214;28;20444;-37
2021/09/27 07:16:19;;;;;;;1.30;1.10;;;17.70;99.90;;;;;;5074101;28;20497;-37
2021/09/27 07:19:05;;;;;;;1.50;1.00;;;17.70;99.90;;;;;;5073280;28;20570;-37
2021/09/27 07:21:36;;;;;;;1.77;1.50;;;17.70;99.90;;;;;;5075108;28;20464;-36
2021/09/27 07:24:08;;;;;;;1.40;1.30;;;17.60;99.90;;;;;;5063015;28;20448;-38
2021/09/27 07:26:39;;;;;;;1.30;1.20;;;17.50;99.90;;;;;;5063725;28;20512;-37
2021/09/27 07:29:12;;;;;;;1.50;1.10;;;17.40;99.90;;;;;;5064112;28;20449;-37
2021/09/27 07:31:43;;;;;;;1.30;1.20;;;17.40;99.90;;;;;;5077595;28;20455;-38
2021/09/27 07:34:14;;;;;;;1.30;1.20;;;17.30;99.90;;;;;;5062684;28;20457;-37
2021/09/27 07:36:45;;;;;;;4.07;1.40;;;17.30;99.90;;;;;;5072300;28;20447;-38
2021/09/27 07:39:18;;;;;;;1.50;1.10;;;17.30;99.90;;;;;;5068727;28;20551;-38
2021/09/27 07:41:49;;;;;;;3.10;1.23;;;17.30;99.90;;;;;;5062800;28;20583;-38
2021/09/27 07:44:22;;;;;;;1.40;1.30;;;17.30;99.90;;;;;;5062485;28;20535;-37
2021/09/27 07:46:53;;;;;;;1.90;1.40;;;17.30;99.90;;;;;;5074792;28;20457;-37
2021/09/27 07:49:24;;;;;;;1.27;1.10;;;17.40;99.90;;;;;;5066590;28;20436;-37
2021/09/27 07:51:57;;;;;;;1.60;1.17;;;17.40;99.90;;;;;;5067765;28;20483;-37
2021/09/27 07:54:28;;;;;;;1.00;1.00;;;17.50;99.90;;;;;;5082628;28;20486;-38
2021/09/27 07:56:59;;;;;;;1.03;0.80;;;17.50;99.90;;;;;;5082195;28;20511;-38
2021/09/27 07:59:32;;;;;;;1.30;1.20;;;17.50;99.90;;;;;;5082872;28;20482;-38
2021/09/27 08:02:04;;;;;;;2.83;1.30;;;17.60;99.90;;;;;;5081765;28;20545;-37
2021/09/27 08:04:35;;;;;;;0.73;0.73;;;17.60;99.90;;;;;;5076476;28;20574;-39
2021/09/27 08:07:06;;;;;;;1.33;1.17;;;17.60;99.90;;;;;;5074690;28;20511;-38
2021/09/27 08:09:37;;;;;;;0.90;0.90;;;17.60;99.90;;;;;;5082688;28;20461;-37
2021/09/27 08:12:08;;;;;;;1.83;1.00;;;17.60;99.90;;;;;;5070226;28;20464;-39
2021/09/27 08:14:41;;;;;;;0.80;0.80;;;17.60;99.90;;;;;;5073519;28;20875;-37
2021/09/27 08:17:12;;;;;;;0.80;0.80;;;17.60;99.90;;;;;;5069258;28;21041;-38
2021/09/27 08:19:45;;;;;;;0.73;0.73;;;17.70;99.90;;;;;;5063605;28;20451;-37
2021/09/27 08:22:16;;;;;;;0.83;0.70;;;17.70;99.90;;;;;;5075603;28;20423;-39
2021/09/27 08:24:47;;;;;;;0.70;0.70;;;17.70;99.90;;;;;;5066340;28;20506;-38
2021/09/27 08:27:19;;;;;;;1.03;0.60;;;17.70;99.90;;;;;;5078986;28;20461;-37
2021/09/27 08:29:52;;;;;;;2.40;0.80;;;17.70;99.90;;;;;;5055226;28;20514;-38
2021/09/27 08:32:23;;;;;;;0.80;0.80;;;17.70;99.90;;;;;;5067783;28;20480;-38
2021/09/27 08:34:54;;;;;;;0.80;0.77;;;17.70;99.90;;;;;;5065739;28;20606;-38
2021/09/27 08:37:25;;;;;;;0.70;0.70;;;17.70;99.90;;;;;;5071018;28;20449;-38
2021/09/27 08:40:03;;;;;;;0.77;0.77;;;17.70;99.90;;;;;;5066479;28;20447;-39
2021/09/27 08:42:40;;;;;;;0.80;0.80;;;17.70;99.90;;;;;;5068662;28;20491;-38
2021/09/27 08:45:18;;;;;;;0.60;0.60;;;17.70;99.90;;;;;;5076165;28;20466;-38
2021/09/27 08:48:01;;;;;;;0.87;0.80;;;17.70;99.90;;;;;;5083626;28;20487;-38
2021/09/27 08:50:35;;;;;;;0.97;0.50;;;17.70;99.90;;;;;;5080662;28;20451;-37
2021/09/27 08:53:08;;;;;;;0.80;0.77;;;17.70;99.90;;;;;;5078222;28;20465;-37
2021/09/27 08:55:40;;;;;;;0.70;0.70;;;17.70;99.90;;;;;;5083195;28;20451;-38
2021/09/27 08:58:22;;;;;;;0.83;0.80;;;17.70;99.90;;;;;;5083168;28;20537;-39
2021/09/27 09:00:59;;;;;;;1.13;1.03;;;17.70;99.90;;;;;;5065513;28;20444;-38
2021/09/27 09:03:37;;;;;;;1.33;1.23;;;17.70;99.90;;;;;;5082492;28;20457;-38
2021/09/27 09:06:14;;;;;;;0.73;0.73;;;17.70;99.90;;;;;;5084457;28;20454;-38
2021/09/27 09:08:47;;;;;;;1.00;0.90;;;17.70;99.90;;;;;;5066130;28;20517;-37
2021/09/27 09:11:29;;;;;;;1.07;0.80;;;17.70;99.90;;;;;;5067185;28;20453;-39
2021/09/27 09:14:09;;;;;;;1.10;1.03;;;17.60;99.90;;;;;;5074309;28;20452;-38
2021/09/27 09:16:42;;;;;;;0.53;0.53;;;17.70;99.90;;;;;;5081320;28;21996;-38
2021/09/27 09:19:17;;;;;;;0.80;0.70;;;17.70;99.90;;;;;;5065294;28;20476;-38
2021/09/27 09:21:52;;;;;;;0.67;0.67;;;17.70;99.90;;;;;;5077509;28;20512;-38
2021/09/27 09:24:27;;;;;;;0.70;0.70;;;17.70;99.90;;;;;;5065454;28;20573;-38
2021/09/27 09:27:03;;;;;;;1.03;0.80;;;17.70;99.90;;;;;;5065825;28;20483;-38
2021/09/27 09:29:37;;;;;;;1.13;1.00;;;17.70;99.90;;;;;;5082352;28;20872;-38
2021/09/27 09:32:16;;;;;;;0.80;0.80;;;17.60;99.90;;;;;;5065202;28;20467;-38
2021/09/27 09:34:48;;;;;;;1.33;0.90;;;17.60;99.90;;;;;;5076082;28;20530;-39
2021/09/27 09:37:26;;;;;;;1.47;0.70;;;17.60;99.90;;;;;;5083142;28;20480;-37
2021/09/27 09:40:03;;;;;;;1.47;0.80;;;17.60;99.90;;;;;;5085397;28;20489;-37
2021/09/27 09:42:36;;;;;;;1.03;0.93;;;17.60;99.90;;;;;;5066966;28;20437;-36
2021/09/27 09:45:18;;;;;;;1.57;1.10;;;17.60;99.90;;;;;;5077129;28;20448;-36
2021/09/27 09:47:51;;;;;;;1.00;0.80;;;17.60;99.90;;;;;;5064207;28;20515;-37
2021/09/27 09:50:32;;;;;;;3.37;1.13;;;17.60;99.90;;;;;;5066927;28;20444;-37
2021/09/27 09:53:16;;;;;;;1.20;1.00;;;17.60;99.90;;;;;;5072662;28;20503;-37
2021/09/27 09:56:05;;;;;;;0.73;0.70;;;17.70;99.90;;;;;;5065005;28;20472;-37
2021/09/27 09:58:40;;;;;;;1.17;0.80;;;17.70;99.90;;;;;;5069971;28;20447;-37
2021/09/27 10:01:19;;;;;;;1.17;1.00;;;17.70;99.90;;;;;;5064523;28;20422;-36
2021/09/27 10:04:12;;;;;;;1.00;0.90;;;17.70;99.90;;;;;;5064303;28;20440;-36
2021/09/27 10:06:47;;;;;;;4.23;1.40;;;17.60;99.90;;;;;;5077443;28;20436;-37
2021/09/27 10:09:29;;;;;;;1.93;1.40;;;17.60;99.90;;;;;;5084986;28;20486;-36
2021/09/27 10:12:02;;;;;;;2.40;0.50;;;17.50;99.90;;;;;;5084027;28;20487;-37
2021/09/27 10:14:39;;;;;;;1.70;0.73;;;17.30;99.90;;;;;;5073697;28;20487;-37
2021/09/27 10:17:19;;;;;;;0.60;0.40;;;17.20;99.90;;;;;;5072006;28;20487;-37
2021/09/27 10:19:57;;;;;;;0.60;0.40;;;17.10;99.90;;;;;;5065739;28;20448;-37
2021/09/27 10:22:35;;;;;;;0.80;0.30;;;17.00;99.90;;;;;;5075946;28;20456;-36
2021/09/27 10:25:28;;;;;;;0.40;0.37;;;16.90;99.90;;;;;;5081803;28;20428;-37
2021/09/27 10:28:00;;;;;;;0.50;0.40;;;16.70;99.90;;;;;;5083786;28;20571;-37
2021/09/27 10:30:41;;;;;;;0.60;0.30;;;16.60;99.90;;;;;;5065116;28;20452;-37
2021/09/27 10:33:18;;;;;;;0.40;0.30;;;16.60;99.90;;;;;;5063567;28;20467;-37
2021/09/27 10:35:56;;;;;;;0.30;0.20;;;16.50;99.90;;;;;;5082852;28;20540;-37
2021/09/27 10:38:31;;;;;;;0.60;0.20;;;16.40;99.90;;;;;;5064649;28;20464;-37
2021/09/27 10:41:09;;;;;;;0.50;0.40;;;16.40;99.90;;;;;;5069273;28;20547;-37
2021/09/27 10:43:41;;;;;;;0.30;0.30;;;16.50;99.90;;;;;;5068419;28;20533;-37
2021/09/27 10:46:12;;;;;;;0.60;0.50;;;16.40;99.90;;;;;;5064009;28;20438;-36
2021/09/27 10:48:49;;;;;;;0.60;0.50;;;16.40;99.90;;;;;;5064467;28;20554;-36
2021/09/27 10:51:27;;;;;;;0.70;0.60;;;16.40;99.90;;;;;;5071102;28;20456;-37
2021/09/27 10:54:05;;;;;;;1.93;0.50;;;16.40;99.90;;;;;;5072542;28;20794;-37
2021/09/27 10:56:40;;;;;;;0.93;0.43;;;16.30;99.90;;;;;;5083727;28;20782;-38
2021/09/27 10:59:14;;;;;;;0.73;0.33;;;16.30;99.90;;;;;;5081671;28;20439;-37
2021/09/27 11:01:52;;;;;;;0.73;0.60;;;16.40;99.90;;;;;;5083096;28;20582;-37
2021/09/27 11:04:31;;;;;;;1.17;0.53;;;16.40;99.90;;;;;;5075267;28;20452;-37
2021/09/27 11:07:19;;;;;;;0.80;0.40;;;16.40;99.90;;;;;;5063848;28;20432;-37
2021/09/27 11:09:50;;;;;;;0.97;0.50;;;16.30;99.90;;;;;;5064398;28;20582;-37
2021/09/27 11:12:34;;;;;;;1.33;0.57;;;16.40;99.90;;;;;;5083501;28;20453;-37
2021/09/27 11:15:15;;;;;;;0.90;0.43;;;16.40;99.90;;;;;;5070127;28;20488;-37
2021/09/27 11:17:49;;;;;;;1.93;0.80;;;16.30;99.90;;;;;;5062873;28;20452;-37
2021/09/27 11:20:49;;;;;;;0.50;0.50;;;16.30;99.90;;;;;;5070458;28;20471;-37
2021/09/27 11:23:26;;;;;;;0.80;0.63;;;16.20;99.90;;;;;;5066561;28;20453;-37
2021/09/27 11:26:33;;;;;;;0.63;0.47;;;16.20;99.90;;;;;;5076312;28;20646;-37
2021/09/27 11:29:27;;;;;;;0.60;0.50;;;16.10;99.90;;;;;;5071862;28;20509;-37
2021/09/27 11:32:38;;;;;;;0.80;0.50;;;16.10;99.90;;;;;;5082785;28;20458;-37
2021/09/27 11:35:11;;;;;;;1.57;0.67;;;16.10;99.90;;;;;;5082038;28;20525;-37
2021/09/27 11:38:18;;;;;;;1.23;0.67;;;16.10;99.90;;;;;;5067708;28;20483;-37
2021/09/27 11:40:55;;;;;;;2.10;1.13;;;16.10;99.90;;;;;;5074034;28;20458;-37
2021/09/27 11:43:38;;;;;;;1.40;0.70;;;16.10;99.90;;;;;;5080260;28;20458;-37
2021/09/27 11:46:26;;;;;;;2.50;1.00;;;16.00;99.90;;;;;;5062580;28;20456;-37
2021/09/27 11:49:03;;;;;;;2.97;1.30;;;15.90;99.90;;;;;;5062056;28;20498;-37
2021/09/27 11:51:39;;;;;;;3.17;1.27;;;15.90;99.90;;;;;;5075226;28;20443;-37
2021/09/27 11:54:48;;;;;;;4.30;1.27;;;15.80;99.90;;;;;;5063127;28;20448;-37
2021/09/27 11:57:27;;;;;;;3.80;1.60;;;15.80;99.90;;;;;;4996039;28;20470;-37
2021/09/27 12:00:10;;;;;;;2.73;2.13;;;15.70;99.90;;;;;;4997726;28;20498;-37
2021/09/27 12:02:57;;;;;;;1.37;1.20;;;15.60;99.90;;;;;;4999748;28;20475;-37
2021/09/27 12:05:47;;;;;;;3.17;1.47;;;15.50;99.90;;;;;;4988102;28;20448;-37
2021/09/27 12:08:26;;;;;;;3.00;1.50;;;15.40;99.90;;;;;;5001077;28;20506;-37
2021/09/27 12:11:01;;;;;;;1.57;1.20;;;15.30;99.90;;;;;;5001493;28;20437;-37
2021/09/27 12:13:42;;;;;;;2.90;1.30;;;15.20;99.90;;;;;;4998547;28;20614;-37
2021/09/27 12:16:18;;;;;;;4.90;1.50;;;15.20;99.90;;;;;;4992434;28;20487;-37
2021/09/27 12:18:52;;;;;;;2.33;1.50;;;15.10;99.90;;;;;;4980783;28;20485;-37
2021/09/27 12:21:28;;;;;;;4.07;1.93;;;15.10;99.90;;;;;;4984880;28;20430;-37
2021/09/27 12:24:07;;;;;;;3.90;1.97;;;15.20;99.90;;;;;;4981552;28;20427;-37
2021/09/27 12:26:41;;;;;;;6.30;2.23;;;15.20;99.90;;;;;;4982220;28;20479;-37
2021/09/27 12:29:16;;;;;;;2.70;1.50;;;15.20;99.90;;;;;;5057018;28;20514;-37
2021/09/27 12:31:53;;;;;;;4.97;1.97;;;15.10;99.90;;;;;;5061689;28;20450;-37
2021/09/27 12:34:27;;;;;;;3.43;1.80;;;15.10;99.90;;;;;;5062234;28;20468;-37
2021/09/27 12:36:59;;;;;;;5.00;2.20;;;15.00;99.90;;;;;;5076295;28;20447;-37
2021/09/27 12:39:32;;;;;;;4.37;1.73;;;15.00;99.90;;;;;;5082310;28;20526;-37
2021/09/27 12:42:06;;;;;;;4.00;1.60;;;15.00;99.90;;;;;;5080142;28;20459;-37
2021/09/27 12:44:44;;;;;;;1.63;1.20;;;15.10;99.90;;;;;;5069561;28;20470;-36
2021/09/27 12:47:16;;;;;;;1.37;1.27;;;15.00;99.90;;;;;;5081687;28;20538;-37
2021/09/27 12:49:53;;;;;;;2.17;1.10;;;15.10;99.90;;;;;;5076644;28;20492;-37
2021/09/27 12:52:36;;;;;;;4.50;1.53;;;15.20;99.90;;;;;;5069285;28;20447;-37
2021/09/27 12:55:11;;;;;;;2.43;1.40;;;15.20;99.90;;;;;;5082597;28;20475;-37
2021/09/27 12:57:47;;;;;;;2.53;1.87;;;15.20;99.90;;;;;;5082406;28;20447;-37
2021/09/27 13:00:25;;;;;;;2.17;1.60;;;15.20;99.90;;;;;;5080937;28;20538;-37
2021/09/27 13:02:58;;;;;;;3.80;1.20;;;15.20;99.90;;;;;;5071855;28;20483;-37
2021/09/27 13:05:48;;;;;;;4.23;1.60;;;15.20;99.90;;;;;;5076295;28;20497;-38
2021/09/27 13:08:27;;;;;;;2.93;1.67;;;15.10;99.90;;;;;;5080874;28;20954;-38
2021/09/27 13:11:02;;;;;;;1.67;1.20;;;15.20;99.90;;;;;;5084481;28;20517;-38
2021/09/27 13:13:35;;;;;;;2.20;1.70;;;15.20;99.90;;;;;;5073883;28;20463;-37
2021/09/27 13:16:19;;;;;;;2.40;1.30;;;15.20;99.90;;;;;;5082264;28;20521;-38
2021/09/27 13:18:50;;;;;;;3.93;2.10;;;15.20;99.90;;;;;;5065150;28;20831;-38
2021/09/27 13:21:27;;;;;;;4.43;1.67;;;15.10;99.90;;;;;;5072326;28;20510;-38
2021/09/27 13:24:03;;;;;;;4.53;1.77;;;15.00;99.90;;;;;;5073231;28;20444;-38
2021/09/27 13:26:41;;;;;;;3.00;1.50;;;15.00;99.90;;;;;;5065068;28;20463;-37
2021/09/27 13:29:31;;;;;;;2.80;1.80;;;15.10;99.90;;;;;;5070205;28;20614;-39
2021/09/27 13:32:08;;;;;;;5.77;1.70;;;15.00;99.90;;;;;;5064416;28;20588;-37
2021/09/27 13:34:46;;;;;;;3.93;1.70;;;15.10;99.90;;;;;;5064425;28;20447;-38
2021/09/27 13:37:26;;;;;;;2.60;1.50;;;15.00;99.90;;;;;;5064869;28;20472;-37
2021/09/27 13:39:59;;;;;;;5.87;2.00;;;14.90;99.90;;;;;;5074491;28;20497;-38
2021/09/27 13:42:43;;;;;;;4.27;1.70;;;15.00;99.90;;;;;;5084845;28;20439;-38
2021/09/27 13:45:17;;;;;;;2.73;2.00;;;15.00;99.90;;;;;;5085143;28;20423;-38
2021/09/27 13:47:50;;;;;;;5.67;2.20;;;15.00;99.90;;;;;;5084439;28;20504;-38
2021/09/27 13:50:21;;;;;;;5.00;1.90;;;15.00;99.90;;;;;;5084007;28;20517;-38
2021/09/27 13:52:58;;;;;;;4.00;2.03;;;15.00;99.90;;;;;;5070326;28;20962;-37
2021/09/27 13:55:30;;;;;;;3.53;1.80;;;15.00;99.90;;;;;;5081962;28;20801;-37